createdAt,value
2023-03-13T00:01:34.125Z,4.8
2023-03-13T00:06:40.269Z,4.8
2023-03-13T00:11:46.472Z,4.8
2023-03-13T00:16:52.650Z,4.7
2023-03-13T00:21:57.947Z,4.7
2023-03-13T00:27:04.080Z,4.8
2023-03-13T00:32:10.273Z,4.8
2023-03-13T00:37:16.517Z,4.8
2023-03-13T00:42:22.650Z,4.8
2023-03-13T00:47:28.847Z,4.8
2023-03-13T00:52:35.064Z,4.8
2023-03-13T00:57:41.224Z,4.8
2023-03-13T01:02:47.415Z,4.9
2023-03-13T01:07:53.628Z,5
2023-03-13T01:12:59.814Z,5.2
2023-03-13T01:18:05.992Z,5.1
2023-03-13T01:23:12.233Z,5.1
2023-03-13T01:28:18.393Z,5.3
2023-03-13T01:33:23.642Z,5.4
2023-03-13T01:38:29.819Z,5.6
2023-03-13T01:43:36.007Z,5.6
2023-03-13T01:48:42.292Z,5.6
2023-03-13T01:53:48.410Z,5.7
2023-03-13T01:58:54.691Z,5.6
2023-03-13T02:04:00.762Z,5.6
2023-03-13T02:09:06.969Z,5.8
2023-03-13T02:14:13.172Z,5.9
2023-03-13T02:19:19.357Z,6.1
2023-03-13T02:24:25.529Z,6.1
2023-03-13T02:29:31.717Z,6.1
2023-03-13T02:34:37.959Z,6.1
2023-03-13T02:39:44.099Z,6.2
2023-03-13T02:44:49.332Z,6.2
2023-03-13T02:49:55.588Z,6.2
2023-03-13T02:55:01.760Z,6.3
2023-03-13T03:00:07.932Z,6.5
2023-03-13T03:05:14.122Z,6.3
2023-03-13T03:10:20.311Z,6.5
2023-03-13T03:15:26.487Z,6.4
2023-03-13T03:20:32.685Z,6.4
2023-03-13T03:25:38.886Z,6.4
2023-03-13T03:30:45.064Z,6.5
2023-03-13T03:35:51.297Z,6.4
2023-03-13T03:40:57.468Z,6.4
2023-03-13T03:46:03.637Z,6.4
2023-03-13T03:51:09.821Z,6.2
2023-03-13T03:56:16.037Z,6.2
2023-03-13T04:01:22.225Z,6.1
2023-03-13T04:06:28.423Z,6.1
2023-03-13T04:11:34.665Z,6.1
2023-03-13T04:16:39.851Z,6.2
2023-03-13T04:21:46.042Z,6.2
2023-03-13T04:26:52.225Z,6.2
2023-03-13T04:31:58.426Z,6
2023-03-13T04:37:04.617Z,6.1
2023-03-13T04:42:10.809Z,6.1
2023-03-13T04:47:17.011Z,6.1
2023-03-13T04:52:23.184Z,6.2
2023-03-13T04:57:29.375Z,6.1
2023-03-13T05:02:35.613Z,6.1
2023-03-13T05:07:41.762Z,6.2
2023-03-13T05:12:47.947Z,6.1
2023-03-13T05:17:54.143Z,6.1
2023-03-13T05:23:00.349Z,6.1
2023-03-13T05:28:06.509Z,6.1
2023-03-13T05:33:12.721Z,6.1
2023-03-13T05:38:18.920Z,6.2
2023-03-13T05:43:25.135Z,6.2
2023-03-13T05:48:30.336Z,6.4
2023-03-13T05:53:36.524Z,6.3
2023-03-13T05:58:42.723Z,6.3
2023-03-13T06:03:48.932Z,6.4
2023-03-13T06:08:55.108Z,6.5
2023-03-13T06:14:01.297Z,6.5
2023-03-13T06:19:07.535Z,6.5
2023-03-13T06:24:13.676Z,6.7
2023-03-13T06:29:19.884Z,6.7
2023-03-13T06:34:26.170Z,6.7
2023-03-13T06:39:32.343Z,6.8
2023-03-13T10:19:01.740Z,10.5
2023-03-13T10:24:07.587Z,10.5
2023-03-13T10:29:14.125Z,10.6
2023-03-13T10:34:20.708Z,10.8
2023-03-13T10:39:27.315Z,11.8
2023-03-13T10:44:33.830Z,12.6
2023-03-13T10:49:40.412Z,12.6
2023-03-13T10:54:46.977Z,13
2023-03-13T10:59:53.585Z,13.5
2023-03-13T11:05:00.119Z,13.3
2023-03-13T11:10:06.693Z,13
2023-03-13T11:15:13.252Z,13
2023-03-13T11:20:19.826Z,12.8
2023-03-13T11:25:26.413Z,13.1
2023-03-13T11:30:32.218Z,13.4
2023-03-13T11:35:38.790Z,13.5
2023-03-13T11:40:45.506Z,13.8
2023-03-13T11:45:52.131Z,13.7
2023-03-13T11:50:58.561Z,13.5
2023-03-13T11:56:05.221Z,13.7
2023-03-13T12:01:11.685Z,13.4
2023-03-13T12:06:18.236Z,13.5
2023-03-13T12:11:24.790Z,13.6
2023-03-13T12:16:31.322Z,14.3
2023-03-13T12:21:37.899Z,14.2
2023-03-13T12:26:44.480Z,14.6
2023-03-13T12:31:51.105Z,15
2023-03-13T12:36:57.060Z,15.1
2023-03-13T12:42:03.449Z,15.7
2023-03-13T12:47:10.031Z,15.8
2023-03-13T12:52:16.582Z,15
2023-03-13T12:57:23.173Z,14.7
2023-03-13T13:02:29.735Z,14.3
2023-03-13T13:07:36.318Z,14.5
2023-03-13T13:12:42.860Z,14.9
2023-03-13T15:20:27.059Z,14.9
2023-03-13T15:25:32.927Z,14.9
2023-03-13T15:30:39.493Z,14.9
2023-03-13T15:35:45.348Z,14.8
2023-03-13T15:40:51.889Z,14.8
2023-03-13T15:45:58.463Z,14.8
2023-03-13T15:51:05.043Z,14.6
2023-03-13T15:56:11.599Z,14.6
2023-03-13T16:01:18.197Z,14.6
2023-03-13T16:06:24.755Z,14.6
2023-03-13T16:11:31.317Z,14.5
2023-03-13T16:16:37.934Z,14.4
2023-03-13T16:21:43.758Z,14.5
2023-03-13T16:26:49.599Z,14.3
2023-03-13T16:31:56.165Z,14.2
2023-03-13T16:37:02.737Z,14.2
2023-03-13T16:42:09.304Z,14.2
2023-03-13T16:47:15.886Z,14.1
2023-03-13T16:52:22.439Z,13.9
2023-03-13T16:57:29.185Z,13.9
2023-03-13T17:02:35.745Z,13.7
2023-03-13T17:07:42.368Z,13.7
2023-03-13T17:12:48.925Z,13.6
2023-03-13T17:17:54.822Z,13.7
2023-03-13T17:23:00.623Z,13.6
2023-03-13T17:28:07.200Z,13.4
2023-03-13T17:33:13.731Z,13.3
2023-03-13T17:38:20.314Z,13.3
2023-03-13T17:43:26.886Z,13.6
2023-03-13T17:48:33.271Z,13.4
2023-03-13T17:53:40.099Z,13.4
2023-03-13T17:58:46.553Z,13.2
2023-03-13T18:03:53.135Z,13.3
2023-03-13T18:08:59.680Z,13.3
2023-03-13T18:14:06.281Z,13.1
2023-03-13T18:19:12.874Z,13.2
2023-03-13T18:24:19.440Z,13.2
2023-03-13T18:29:25.297Z,13.3
2023-03-13T18:34:31.834Z,13.3
2023-03-13T18:39:38.404Z,13.2
2023-03-13T18:44:44.914Z,13.1
2023-03-13T18:49:51.531Z,13.2
2023-03-13T18:54:58.132Z,13.2
2023-03-13T19:00:04.515Z,13.3
2023-03-13T19:05:10.539Z,13.4
2023-03-13T19:10:16.421Z,13.2
2023-03-13T19:15:22.962Z,13.1
2023-03-13T19:20:29.574Z,12.8
2023-03-13T19:25:36.142Z,12.9
2023-03-13T19:30:42.610Z,13
2023-03-13T19:35:49.264Z,13
2023-03-13T19:40:55.806Z,12.7
2023-03-13T19:46:02.457Z,12.7
2023-03-13T19:51:08.980Z,12.5
2023-03-13T19:56:15.514Z,12.3
2023-03-13T20:01:22.137Z,12.4
2023-03-13T20:06:28.714Z,12.3
2023-03-13T20:11:35.220Z,12.3
2023-03-13T20:16:41.060Z,12
2023-03-13T20:21:47.607Z,12.3
2023-03-13T20:26:54.023Z,12.2
2023-03-13T20:32:00.723Z,12.3
2023-03-13T20:37:07.325Z,12.1
2023-03-13T20:42:13.859Z,12.1
2023-03-13T20:47:20.309Z,12
2023-03-13T20:52:26.198Z,12
2023-03-13T20:57:32.033Z,12
2023-03-13T21:02:38.695Z,12
2023-03-13T21:07:45.197Z,12.2
2023-03-13T21:12:51.041Z,12
2023-03-13T21:17:57.608Z,11.9
2023-03-13T21:23:03.593Z,11.8
2023-03-13T21:28:10.183Z,11.9
2023-03-13T21:33:16.732Z,12
2023-03-13T21:38:23.290Z,11.8
2023-03-13T21:43:29.904Z,11.8
2023-03-13T21:48:36.612Z,11.8
2023-03-13T21:53:42.904Z,12
2023-03-13T21:58:49.593Z,11.9
2023-03-13T22:03:55.991Z,11.9
2023-03-13T22:09:02.612Z,11.6
2023-03-13T22:14:09.312Z,11.5
2023-03-13T22:19:15.866Z,11.4
2023-03-13T22:24:22.426Z,11.3
2023-03-13T22:29:28.262Z,11.1
2023-03-13T22:34:34.785Z,11
2023-03-13T22:39:41.410Z,10.8
2023-03-13T22:44:47.908Z,10.8
2023-03-13T22:49:54.377Z,10.8
2023-03-13T22:55:01.136Z,11.2
2023-03-13T23:00:06.742Z,11
2023-03-13T23:05:12.104Z,10.7
2023-03-13T23:10:18.518Z,10.7
2023-03-13T23:15:24.844Z,10.7
2023-03-13T23:51:08.942Z,10.7
2023-03-13T23:56:15.262Z,10.6
